createdAt,value
2023-04-29T00:02:06.518Z,100367.81
2023-04-29T00:07:11.856Z,100376.22
2023-04-29T00:09:40.666Z,100363.09
2023-04-29T00:12:11.732Z,100362.00
2023-04-29T00:14:40.293Z,100363.56
2023-04-29T00:17:09.100Z,100375.41
2023-04-29T00:19:38.206Z,100375.41
2023-04-29T00:22:07.658Z,100370.63
2023-04-29T00:24:36.473Z,100371.44
2023-04-29T00:27:06.276Z,100370.44
2023-04-29T00:29:36.937Z,100371.34
2023-04-29T00:32:06.793Z,100379.94
2023-04-29T00:34:35.553Z,100381.13
2023-04-29T00:37:04.441Z,100380.06
2023-04-29T00:39:33.012Z,100380.06
2023-04-29T00:42:03.515Z,100374.09
2023-04-29T00:44:32.029Z,100386.78
2023-04-29T00:47:04.004Z,100382.84
2023-04-29T00:49:33.334Z,100383.78
2023-04-29T00:52:02.650Z,100396.97
2023-04-29T00:54:31.832Z,100389.38
2023-04-29T00:57:02.800Z,100392.81
2023-04-29T00:59:32.538Z,100398.88
2023-04-29T01:02:04.444Z,100394.31
2023-04-29T01:04:36.315Z,100403.63
2023-04-29T01:07:14.331Z,100399.50
2023-04-29T01:09:58.971Z,100392.97
2023-04-29T01:12:34.474Z,100412.19
2023-04-29T01:15:06.976Z,100411.25
2023-04-29T01:17:44.129Z,100418.69
2023-04-29T01:20:13.600Z,100421.47
2023-04-29T01:22:44.954Z,100417.34
2023-04-29T01:25:22.292Z,100423.41
2023-04-29T01:28:22.985Z,100414.91
2023-04-29T01:30:58.280Z,100417.00
2023-04-29T01:33:39.785Z,100424.41
2023-04-29T01:36:18.740Z,100421.47
2023-04-29T01:38:54.726Z,100420.84
2023-04-29T01:41:33.472Z,100424.69
2023-04-29T01:44:17.073Z,100424.25
2023-04-29T01:46:50.342Z,100433.00
2023-04-29T01:49:22.478Z,100431.63
2023-04-29T01:51:51.192Z,100445.78
2023-04-29T01:54:19.532Z,100435.28
2023-04-29T01:56:49.728Z,100440.16
2023-04-29T01:59:25.666Z,100443.66
2023-04-29T02:02:10.720Z,100449.38
2023-04-29T02:04:46.683Z,100451.19
2023-04-29T02:07:14.974Z,100448.38
2023-04-29T02:09:43.746Z,100458.97
2023-04-29T02:12:15.106Z,100457.50
2023-04-29T02:14:43.300Z,100457.41
2023-04-29T02:17:12.538Z,100462.09
2023-04-29T02:19:42.840Z,100470.72
2023-04-29T02:22:12.567Z,100478.78
2023-04-29T02:24:42.552Z,100481.81
2023-04-29T02:27:10.499Z,100482.47
2023-04-29T02:29:52.816Z,100483.50
2023-04-29T02:32:21.696Z,100485.63
2023-04-29T02:34:51.114Z,100487.84
2023-04-29T02:37:20.860Z,100496.53
2023-04-29T02:39:50.001Z,100499.44
2023-04-29T02:42:27.340Z,100497.66
2023-04-29T02:45:09.424Z,100500.19
2023-04-29T02:47:42.682Z,100511.06
2023-04-29T02:50:15.856Z,100517.38
2023-04-29T02:52:49.430Z,100507.09
2023-04-29T02:55:19.238Z,100511.66
2023-04-29T02:57:50.846Z,100510.78
2023-04-29T03:00:25.052Z,100508.88
2023-04-29T03:02:55.449Z,100535.16
2023-04-29T03:05:23.905Z,100524.81
2023-04-29T03:07:52.657Z,100532.19
2023-04-29T03:10:21.886Z,100532.53
2023-04-29T03:12:51.503Z,100532.84
2023-04-29T03:15:21.869Z,100529.41
2023-04-29T03:17:50.856Z,100540.19
2023-04-29T03:20:20.595Z,100540.38
2023-04-29T03:22:58.588Z,100539.50
2023-04-29T03:25:27.230Z,100547.72
2023-04-29T03:27:56.363Z,100549.69
2023-04-29T03:30:27.441Z,100543.78
2023-04-29T03:33:01.480Z,100547.72
2023-04-29T03:35:31.839Z,100553.56
2023-04-29T03:38:24.387Z,100555.03
2023-04-29T03:40:58.552Z,100562.38
2023-04-29T03:43:37.209Z,100567.50
2023-04-29T03:46:08.349Z,100564.72
2023-04-29T03:48:41.844Z,100563.88
2023-04-29T03:51:15.450Z,100571.03
2023-04-29T03:53:47.002Z,100571.53
2023-04-29T03:56:17.471Z,100572.69
2023-04-29T03:58:47.552Z,100581.25
2023-04-29T04:01:17.869Z,100582.69
2023-04-29T04:03:48.116Z,100582.25
2023-04-29T04:06:16.570Z,100588.16
2023-04-29T04:08:45.327Z,100588.78
2023-04-29T04:11:17.427Z,100594.47
2023-04-29T04:14:00.720Z,100596.97
2023-04-29T04:16:30.968Z,100602.19
2023-04-29T04:19:00.150Z,100622.59
2023-04-29T04:21:29.013Z,100613.19
2023-04-29T04:24:03.849Z,100623.72
2023-04-29T04:26:32.756Z,100626.34
2023-04-29T04:29:16.493Z,100620.28
2023-04-29T04:32:01.946Z,100628.13
2023-04-29T04:34:32.511Z,100632.31
2023-04-29T04:37:03.019Z,100631.47
2023-04-29T04:39:32.769Z,100638.09
2023-04-29T04:42:05.737Z,100636.97
2023-04-29T04:44:36.495Z,100644.34
2023-04-29T04:47:11.649Z,100643.81
2023-04-29T04:49:49.912Z,100648.69
2023-04-29T04:52:21.359Z,100671.72
2023-04-29T04:55:00.559Z,100669.63
2023-04-29T04:57:31.196Z,100679.25
2023-04-29T05:00:02.592Z,100666.34
2023-04-29T05:02:32.164Z,100677.66
2023-04-29T05:05:00.396Z,100683.16
2023-04-29T05:07:31.809Z,100695.25
2023-04-29T05:10:06.654Z,100695.06
2023-04-29T05:12:38.297Z,100694.22
2023-04-29T05:15:07.203Z,100697.38
2023-04-29T05:17:36.830Z,100697.97
2023-04-29T05:20:06.447Z,100709.63
2023-04-29T05:22:35.236Z,100711.94
2023-04-29T05:25:03.873Z,100716.91
2023-04-29T05:27:35.315Z,100718.38
2023-04-29T05:30:06.332Z,100723.00
2023-04-29T05:32:36.544Z,100725.22
2023-04-29T05:35:07.630Z,100729.00
2023-04-29T05:37:36.745Z,100731.44
2023-04-29T05:40:15.826Z,100732.53
2023-04-29T05:42:44.845Z,100734.56
2023-04-29T05:45:14.153Z,100738.09
2023-04-29T05:47:43.715Z,100756.53
2023-04-29T05:50:12.790Z,100753.19
2023-04-29T05:52:41.078Z,100751.81
2023-04-29T05:55:11.212Z,100765.69
2023-04-29T05:57:40.256Z,100772.91
2023-04-29T06:00:10.563Z,100770.59
2023-04-29T06:02:57.658Z,100764.38
2023-04-29T06:05:29.567Z,100773.75
2023-04-29T06:08:12.011Z,100776.78
2023-04-29T06:10:52.090Z,100767.19
2023-04-29T06:13:20.467Z,100777.75
2023-04-29T06:15:48.773Z,100786.13
2023-04-29T06:18:19.052Z,100793.66
2023-04-29T06:20:47.263Z,100790.38
2023-04-29T06:23:16.140Z,100789.34
2023-04-29T06:25:44.406Z,100792.94
2023-04-29T06:28:12.448Z,100800.00
2023-04-29T06:30:40.488Z,100802.22
2023-04-29T06:33:13.870Z,100808.78
2023-04-29T06:35:43.576Z,100810.31
2023-04-29T06:42:57.396Z,100826.16
2023-04-29T06:45:51.942Z,100830.94
2023-04-29T06:48:30.075Z,100832.16
2023-04-29T06:51:00.464Z,100842.78
2023-04-29T06:53:37.088Z,100847.47
2023-04-29T06:56:05.880Z,100857.28
2023-04-29T06:58:34.130Z,100862.63
2023-04-29T07:01:05.539Z,100865.56
2023-04-29T07:03:33.687Z,100870.22
2023-04-29T07:06:05.133Z,100876.63
2023-04-29T07:08:33.280Z,100876.97
2023-04-29T07:11:01.566Z,100882.94
2023-04-29T07:13:30.097Z,100886.22
2023-04-29T07:15:58.435Z,100893.13
2023-04-29T07:18:27.268Z,100902.34
2023-04-29T07:20:55.840Z,100901.47
2023-04-29T07:23:27.878Z,100909.78
2023-04-29T07:25:57.505Z,100918.94
2023-04-29T07:28:26.197Z,100922.09
2023-04-29T07:30:55.323Z,100925.03
2023-04-29T07:33:26.322Z,100925.00
2023-04-29T07:35:54.594Z,100927.22
2023-04-29T07:38:22.635Z,100944.75
2023-04-29T07:40:52.006Z,100942.13
2023-04-29T07:43:20.427Z,100935.78
2023-04-29T07:45:48.597Z,100949.16
2023-04-29T07:48:17.031Z,100949.09
2023-04-29T07:50:46.439Z,100958.38
2023-04-29T07:53:15.752Z,100958.78
2023-04-29T07:55:43.848Z,100958.72
2023-04-29T07:58:13.808Z,100954.72
2023-04-29T08:00:41.896Z,100954.78
2023-04-29T08:03:10.491Z,100970.44
2023-04-29T08:05:38.783Z,100973.38
2023-04-29T08:08:07.014Z,100982.00
2023-04-29T08:10:34.988Z,100984.69
2023-04-29T08:13:03.197Z,100980.63
2023-04-29T08:15:32.485Z,100974.25
2023-04-29T08:18:00.578Z,100994.31
2023-04-29T08:20:28.860Z,100986.41
2023-04-29T08:22:57.123Z,100981.75
2023-04-29T08:25:27.246Z,100986.03
2023-04-29T08:27:55.215Z,100987.34
2023-04-29T08:30:23.289Z,100996.25
2023-04-29T08:32:53.284Z,100995.72
2023-04-29T08:35:21.476Z,100998.22
2023-04-29T08:37:49.642Z,100996.13
2023-04-29T08:40:17.669Z,101008.38
2023-04-29T08:42:48.852Z,101003.75
2023-04-29T08:45:21.866Z,101003.38
2023-04-29T08:47:51.640Z,101004.91
2023-04-29T08:50:21.302Z,101016.88
2023-04-29T08:52:51.334Z,101008.47
2023-04-29T08:55:19.720Z,101024.94
2023-04-29T08:57:50.528Z,101022.75
2023-04-29T09:00:19.771Z,101029.69
2023-04-29T09:02:51.785Z,101030.81
2023-04-29T09:05:21.893Z,101031.66
2023-04-29T09:07:51.520Z,101031.22
2023-04-29T09:10:20.269Z,101037.53
2023-04-29T09:12:48.267Z,101034.91
2023-04-29T09:15:16.456Z,101040.81
2023-04-29T09:17:46.096Z,101032.44
2023-04-29T09:20:31.827Z,101045.81
2023-04-29T09:23:02.974Z,101054.16
2023-04-29T09:25:31.649Z,101043.91
2023-04-29T09:27:59.788Z,101040.78
2023-04-29T09:30:28.001Z,101065.66
2023-04-29T09:33:07.559Z,101061.41
2023-04-29T09:35:38.228Z,101072.13
2023-04-29T09:38:12.085Z,101064.31
2023-04-29T09:40:54.376Z,101072.38
2023-04-29T09:43:25.561Z,101072.88
2023-04-29T09:45:53.629Z,101074.94
2023-04-29T09:48:21.850Z,101082.91
2023-04-29T09:51:03.811Z,101087.75
2023-04-29T09:53:32.669Z,101090.53
2023-04-29T09:56:02.698Z,101079.41
2023-04-29T09:58:34.313Z,101082.78
2023-04-29T10:01:03.813Z,101078.28
2023-04-29T10:03:35.157Z,101078.06
2023-04-29T10:06:08.649Z,101094.84
2023-04-29T10:08:37.035Z,101088.22
2023-04-29T10:11:06.306Z,101093.50
2023-04-29T10:13:38.495Z,101106.34
2023-04-29T10:16:15.763Z,101083.28
2023-04-29T10:18:50.252Z,101093.03
2023-04-29T10:21:22.251Z,101081.97
2023-04-29T10:23:51.341Z,101091.28
2023-04-29T10:26:20.026Z,101092.47
2023-04-29T10:28:51.551Z,101096.75
2023-04-29T10:31:22.767Z,101088.13
2023-04-29T10:33:53.257Z,101086.16
2023-04-29T10:36:23.637Z,101086.94
2023-04-29T10:38:55.515Z,101092.66
2023-04-29T10:41:26.867Z,101091.81
2023-04-29T10:43:55.072Z,101077.53
2023-04-29T10:46:26.330Z,101080.19
2023-04-29T10:48:59.636Z,101086.41
2023-04-29T10:51:34.388Z,101083.66
2023-04-29T10:54:09.798Z,101095.63
2023-04-29T10:56:42.911Z,101086.97
2023-04-29T10:59:13.100Z,101096.06
2023-04-29T11:01:49.453Z,101099.13
2023-04-29T11:04:18.628Z,101090.47
2023-04-29T11:06:52.449Z,101094.47
2023-04-29T11:09:22.346Z,101094.97
2023-04-29T11:12:03.033Z,101110.63
2023-04-29T11:14:33.581Z,101088.19
2023-04-29T11:17:03.658Z,101092.13
2023-04-29T11:19:36.176Z,101094.63
2023-04-29T11:22:14.048Z,101094.47
2023-04-29T11:24:53.197Z,101096.16
2023-04-29T11:27:25.776Z,101087.72
2023-04-29T11:29:58.703Z,101093.00
2023-04-29T11:32:27.861Z,101093.38
2023-04-29T11:34:56.616Z,101097.50
2023-04-29T11:37:27.587Z,101104.44
2023-04-29T11:40:01.488Z,101108.75
2023-04-29T11:42:29.585Z,101105.31
2023-04-29T11:44:59.603Z,101105.22
2023-04-29T11:47:29.579Z,101109.69
2023-04-29T11:50:04.568Z,101115.63
2023-04-29T11:52:34.699Z,101119.22
2023-04-29T11:55:03.847Z,101115.47
2023-04-29T11:57:31.899Z,101114.03
2023-04-29T12:00:00.145Z,101128.59
2023-04-29T12:02:32.687Z,101110.63
2023-04-29T12:05:02.774Z,101114.41
2023-04-29T12:07:31.143Z,101109.47
2023-04-29T12:10:00.784Z,101124.16
2023-04-29T12:12:29.322Z,101123.06
2023-04-29T12:14:58.582Z,101134.78
2023-04-29T12:17:27.017Z,101122.75
2023-04-29T12:19:55.620Z,101119.78
2023-04-29T12:22:24.056Z,101112.19
2023-04-29T12:24:54.729Z,101130.44
2023-04-29T12:27:26.681Z,101124.16
2023-04-29T12:29:54.870Z,101127.69
2023-04-29T12:32:25.926Z,101133.69
2023-04-29T12:34:55.412Z,101126.31
2023-04-29T12:37:24.553Z,101126.69
2023-04-29T12:39:54.337Z,101133.34
2023-04-29T12:42:22.282Z,101130.41
2023-04-29T12:44:51.845Z,101136.03
2023-04-29T12:47:21.539Z,101135.22
2023-04-29T12:49:50.313Z,101134.63
2023-04-29T12:52:18.208Z,101135.53
2023-04-29T12:54:46.269Z,101129.75
2023-04-29T12:57:14.530Z,101131.31
2023-04-29T12:59:42.527Z,101127.53
2023-04-29T13:02:12.533Z,101138.66
2023-04-29T13:04:40.638Z,101147.09
2023-04-29T13:07:08.986Z,101145.06
2023-04-29T13:09:38.115Z,101143.94
2023-04-29T13:12:09.393Z,101133.56
2023-04-29T13:14:37.531Z,101144.63
2023-04-29T13:17:06.153Z,101150.94
2023-04-29T13:22:07.490Z,101144.59
2023-04-29T13:24:36.598Z,101150.53
2023-04-29T13:27:05.803Z,101157.13
2023-04-29T13:29:34.145Z,101148.66
2023-04-29T13:32:02.397Z,101152.38
2023-04-29T13:34:30.393Z,101145.59
2023-04-29T13:36:59.878Z,101153.84
2023-04-29T13:39:28.156Z,101161.03
2023-04-29T13:41:58.959Z,101144.63
2023-04-29T13:44:37.657Z,101148.28
2023-04-29T13:47:15.478Z,101160.03
2023-04-29T13:50:22.582Z,101155.44
2023-04-29T13:55:50.057Z,101161.94
2023-04-29T14:01:17.189Z,101176.56
2023-04-29T14:06:22.447Z,101179.50
2023-04-29T14:14:22.907Z,101198.75
2023-04-29T14:22:22.005Z,101186.75
2023-04-29T14:27:36.871Z,101190.22
2023-04-29T14:30:05.851Z,101194.75
2023-04-29T14:38:05.090Z,101205.09
2023-04-29T14:46:05.583Z,101213.41
2023-04-29T14:48:33.543Z,101205.13
2023-04-29T14:53:46.958Z,101212.91
2023-04-29T14:56:17.685Z,101210.25
2023-04-29T14:58:45.917Z,101206.22
2023-04-29T15:03:59.241Z,101218.03
2023-04-29T15:20:22.122Z,101236.59
2023-04-29T15:22:50.126Z,101232.47
2023-04-29T15:28:05.956Z,101225.09
2023-04-29T15:30:34.119Z,101229.41
2023-04-29T15:46:51.009Z,101235.09
2023-04-29T15:49:19.114Z,101241.38
2023-04-29T15:51:47.352Z,101237.72
2023-04-29T15:59:48.377Z,101235.28
2023-04-29T16:02:16.860Z,101236.13
2023-04-29T16:04:44.751Z,101244.28
2023-04-29T16:07:12.764Z,101249.09
2023-04-29T16:09:40.767Z,101250.31
2023-04-29T16:12:11.492Z,101255.88
2023-04-29T16:34:06.020Z,101257.84
2023-04-29T16:39:20.204Z,101263.84
2023-04-29T16:41:48.445Z,101272.41
2023-04-29T16:47:02.539Z,101284.09
2023-04-29T16:49:32.394Z,101271.75
2023-04-29T16:52:00.482Z,101275.94
2023-04-29T16:57:14.556Z,101282.13
2023-04-29T16:59:42.785Z,101288.34
2023-04-29T17:02:10.800Z,101295.31
2023-04-29T17:04:40.716Z,101294.34
2023-04-29T17:12:40.968Z,101312.31
2023-04-29T17:15:10.029Z,101314.00
2023-04-29T17:17:38.406Z,101307.78
2023-04-29T17:20:09.559Z,101317.34
2023-04-29T17:28:11.870Z,101317.28
2023-04-29T17:36:21.052Z,101336.34
2023-04-29T17:44:23.170Z,101338.75
2023-04-29T17:55:10.724Z,101354.22
2023-04-29T18:00:26.062Z,101363.88
2023-04-29T18:05:39.966Z,101361.00
2023-04-29T18:10:55.310Z,101362.13
2023-04-29T18:13:25.915Z,101363.97
2023-04-29T18:18:41.575Z,101373.22
2023-04-29T18:37:46.455Z,101387.41
2023-04-29T18:43:02.038Z,101385.25
2023-04-29T18:45:30.503Z,101404.63
2023-04-29T18:47:58.715Z,101401.16
2023-04-29T18:50:26.753Z,101409.47
2023-04-29T18:52:54.878Z,101406.50
2023-04-29T18:55:25.450Z,101425.41
2023-04-29T19:11:47.858Z,101440.38
2023-04-29T19:14:16.115Z,101443.94
2023-04-29T19:19:30.297Z,101444.56
2023-04-29T19:21:59.530Z,101443.94
2023-04-29T19:38:17.735Z,101479.34
2023-04-29T19:40:45.726Z,101482.97
2023-04-29T19:59:50.724Z,101505.44
2023-04-29T20:05:04.757Z,101511.22
2023-04-29T20:13:03.850Z,101522.03
2023-04-29T20:29:23.385Z,101538.34
2023-04-29T20:45:42.923Z,101556.53
2023-04-29T20:56:29.018Z,101566.25
2023-04-29T20:58:58.980Z,101563.19
2023-04-29T21:01:27.045Z,101565.03
2023-04-29T21:09:27.660Z,101577.56
2023-04-29T21:11:57.938Z,101572.44
2023-04-29T21:14:27.477Z,101575.38
2023-04-29T21:16:56.476Z,101576.00
2023-04-29T21:19:26.022Z,101574.13
2023-04-29T21:21:53.964Z,101577.38
2023-04-29T21:27:10.186Z,101583.28
2023-04-29T21:35:13.237Z,101588.69
2023-04-29T21:37:41.258Z,101593.59
2023-04-29T21:40:10.491Z,101607.16
2023-04-29T21:45:24.602Z,101594.19
2023-04-29T21:47:55.531Z,101593.81
2023-04-29T21:50:24.897Z,101608.69
2023-04-29T22:01:26.494Z,101608.00
2023-04-29T22:03:54.762Z,101607.06
2023-04-29T22:09:10.032Z,101599.31
2023-04-29T22:17:09.676Z,101613.75
2023-04-29T22:25:10.312Z,101622.94
2023-04-29T22:27:38.330Z,101619.63
2023-04-29T22:38:26.082Z,101626.56
2023-04-29T22:40:54.171Z,101631.56
2023-04-29T22:48:53.652Z,101634.81
2023-04-29T22:54:08.513Z,101626.69
2023-04-29T22:56:36.450Z,101628.75
2023-04-29T22:59:04.283Z,101643.09
2023-04-29T23:15:20.215Z,101649.84
2023-04-29T23:17:48.278Z,101656.66
2023-04-29T23:20:16.204Z,101665.34
2023-04-29T23:25:30.973Z,101669.56
2023-04-29T23:27:58.886Z,101663.94
2023-04-29T23:33:12.228Z,101675.88
2023-04-29T23:35:40.134Z,101671.47
2023-04-29T23:40:57.535Z,101673.75
2023-04-29T23:43:25.498Z,101675.22
2023-04-29T23:51:24.450Z,101672.03
2023-04-29T23:56:39.685Z,101672.97
2023-04-29T23:59:07.916Z,101674.88
